createdAt,value
2022-08-08T00:00:55.923Z,5.50
2022-08-08T00:00:56.684Z,5.03
2022-08-08T00:01:16.082Z,4.40
2022-08-08T00:02:30.283Z,4.90
2022-08-08T00:02:56.457Z,4.93
2022-08-08T00:03:38.312Z,5.75
2022-08-08T00:04:17.293Z,4.60
2022-08-08T00:05:09.758Z,5.15
2022-08-08T00:06:03.673Z,4.95
2022-08-08T00:06:43.458Z,4.97
2022-08-08T00:07:19.314Z,4.80
2022-08-08T00:07:59.482Z,5.15
2022-08-08T00:08:40.250Z,5.72
2022-08-08T00:09:24.894Z,4.72
2022-08-08T00:10:06.233Z,4.38
2022-08-08T00:10:49.635Z,4.88
2022-08-08T00:11:46.500Z,4.90
2022-08-08T00:12:31.658Z,4.55
2022-08-08T00:13:10.404Z,4.53
2022-08-08T00:14:15.630Z,4.53
2022-08-08T00:15:00.065Z,4.85
2022-08-08T00:15:56.978Z,4.05
2022-08-08T00:16:40.136Z,4.80
2022-08-08T00:17:23.239Z,4.50
2022-08-08T00:18:03.887Z,4.05
2022-08-08T00:18:44.946Z,4.45
2022-08-08T00:19:22.685Z,4.55
2022-08-08T00:20:00.159Z,4.90
2022-08-08T00:20:42.087Z,4.63
2022-08-08T00:21:19.589Z,4.20
2022-08-08T00:22:02.204Z,4.97
2022-08-08T00:22:44.858Z,4.45
2022-08-08T00:23:28.476Z,4.10
2022-08-08T00:24:24.050Z,5.03
2022-08-08T00:25:05.641Z,4.40
2022-08-08T00:25:46.310Z,4.40
2022-08-08T00:26:29.325Z,4.53
2022-08-08T00:27:06.994Z,4.28
2022-08-08T00:27:42.292Z,4.80
2022-08-08T00:28:35.315Z,4.95
2022-08-08T00:29:15.028Z,4.82
2022-08-08T00:29:56.155Z,4.60
2022-08-08T00:30:36.123Z,4.40
2022-08-08T00:32:28.230Z,4.35
2022-08-08T00:32:35.446Z,3.80
2022-08-08T00:33:18.387Z,3.50
2022-08-08T00:34:20.311Z,4.80
2022-08-08T00:35:18.850Z,4.18
2022-08-08T00:36:01.881Z,4.07
2022-08-08T00:36:45.596Z,4.22
2022-08-08T00:37:47.691Z,4.38
2022-08-08T00:38:44.261Z,4.50
2022-08-08T00:41:05.906Z,4.38
2022-08-08T00:41:11.863Z,4.32
2022-08-08T00:42:33.127Z,4.85
2022-08-08T00:44:01.104Z,4.20
2022-08-08T00:44:57.469Z,5.45
2022-08-08T00:46:00.637Z,4.10
2022-08-08T00:47:19.326Z,3.83
2022-08-08T00:48:41.016Z,4.82
2022-08-08T00:49:39.939Z,4.32
2022-08-08T00:50:53.366Z,7.70
2022-08-08T00:52:06.584Z,5.13
2022-08-08T00:52:51.401Z,4.63
2022-08-08T00:53:43.686Z,11.77
2022-08-08T00:55:08.755Z,4.95
2022-08-08T00:56:19.402Z,4.28
2022-08-08T00:57:35.878Z,4.10
2022-08-08T00:58:39.345Z,5.05
2022-08-08T00:59:54.888Z,4.40
2022-08-08T01:00:28.480Z,4.25
2022-08-08T01:01:14.501Z,4.60
2022-08-08T01:02:01.612Z,4.50
2022-08-08T01:04:00.870Z,5.38
2022-08-08T01:04:52.291Z,4.35
2022-08-08T01:05:59.234Z,4.07
2022-08-08T01:07:20.822Z,5.00
2022-08-08T01:08:28.874Z,4.38
2022-08-08T01:09:35.655Z,4.93
2022-08-08T01:10:42.556Z,4.40
2022-08-08T01:11:56.549Z,4.65
2022-08-08T01:12:59.585Z,5.85
2022-08-08T01:13:58.519Z,5.05
2022-08-08T01:15:09.156Z,4.22
2022-08-08T01:16:08.041Z,4.80
2022-08-08T01:17:11.361Z,4.03
2022-08-08T01:18:52.549Z,4.30
2022-08-08T01:20:03.106Z,4.78
2022-08-08T01:20:56.516Z,5.47
2022-08-08T01:22:07.288Z,3.72
2022-08-08T01:23:15.920Z,4.88
2022-08-08T01:24:43.718Z,3.78
2022-08-08T01:26:02.305Z,4.20
2022-08-08T01:27:07.005Z,4.55
2022-08-08T01:28:04.099Z,4.28
2022-08-08T01:29:00.838Z,5.10
2022-08-08T01:29:59.803Z,4.82
2022-08-08T01:31:00.014Z,4.22
2022-08-08T01:32:17.553Z,5.45
2022-08-08T01:33:42.809Z,4.28
2022-08-08T01:34:55.678Z,4.70
2022-08-08T01:36:00.898Z,6.22
2022-08-08T01:37:21.613Z,4.78
2022-08-08T01:38:27.243Z,5.30
2022-08-08T01:39:28.003Z,4.60
2022-08-08T01:40:22.046Z,5.07
2022-08-08T01:41:02.903Z,4.50
2022-08-08T01:41:47.589Z,5.10
2022-08-08T01:42:36.647Z,5.05
2022-08-08T01:43:34.623Z,4.50
2022-08-08T01:44:33.172Z,4.32
2022-08-08T01:45:22.818Z,4.68
2022-08-08T01:46:00.848Z,4.63
2022-08-08T01:46:52.133Z,4.70
2022-08-08T01:48:13.804Z,4.30
2022-08-08T01:48:53.156Z,4.82
2022-08-08T01:49:40.521Z,4.38
2022-08-08T01:50:29.842Z,3.97
2022-08-08T01:52:41.613Z,5.32
2022-08-08T01:53:55.322Z,4.80
2022-08-08T01:55:16.603Z,4.88
2022-08-08T01:55:45.242Z,4.82
2022-08-08T01:56:28.539Z,4.75
2022-08-08T01:57:02.170Z,7.80
2022-08-08T01:58:12.447Z,5.78
2022-08-08T01:58:46.931Z,5.05
2022-08-08T02:00:01.748Z,4.85
2022-08-08T02:00:42.868Z,5.20
2022-08-08T02:01:30.267Z,4.75
2022-08-08T02:02:41.492Z,5.60
2022-08-08T02:03:56.060Z,4.63
2022-08-08T02:04:33.915Z,5.32
2022-08-08T02:05:23.216Z,4.32
2022-08-08T02:06:05.154Z,5.70
2022-08-08T02:06:54.350Z,4.70
2022-08-08T02:07:48.845Z,6.47
2022-08-08T02:08:34.541Z,5.35
2022-08-08T02:10:01.098Z,4.68
2022-08-08T02:10:45.098Z,5.15
2022-08-08T02:11:52.695Z,4.45
2022-08-08T02:12:29.247Z,5.05
2022-08-08T02:13:15.845Z,5.13
2022-08-08T02:14:09.619Z,4.80
2022-08-08T02:14:50.155Z,5.13
2022-08-08T02:15:38.901Z,4.97
2022-08-08T02:16:21.244Z,4.13
2022-08-08T02:17:03.167Z,4.60
2022-08-08T02:17:50.472Z,5.45
2022-08-08T02:18:42.418Z,4.82
2022-08-08T02:19:41.695Z,4.68
2022-08-08T02:21:01.854Z,4.80
2022-08-08T02:21:41.983Z,5.47
2022-08-08T02:22:33.742Z,5.13
2022-08-08T02:23:16.235Z,4.95
2022-08-08T02:23:54.663Z,4.80
2022-08-08T02:24:29.602Z,4.93
2022-08-08T02:25:11.936Z,5.40
2022-08-08T02:25:56.363Z,5.22
2022-08-08T02:26:35.823Z,5.05
2022-08-08T02:27:15.100Z,5.38
2022-08-08T02:27:57.294Z,5.72
2022-08-08T02:28:51.655Z,5.72
2022-08-08T02:29:46.757Z,5.32
2022-08-08T02:30:37.728Z,6.05
2022-08-08T02:31:59.587Z,5.85
2022-08-08T02:32:54.050Z,5.88
2022-08-08T02:33:41.644Z,5.80
2022-08-08T02:35:08.041Z,5.25
2022-08-08T02:36:05.671Z,5.90
2022-08-08T02:36:55.135Z,4.85
2022-08-08T02:37:52.247Z,6.00
2022-08-08T02:38:53.113Z,5.40
2022-08-08T02:39:59.889Z,5.53
2022-08-08T02:40:39.675Z,5.57
2022-08-08T02:42:03.886Z,6.53
2022-08-08T02:43:07.412Z,6.10
2022-08-08T02:44:39.375Z,6.32
2022-08-08T02:45:21.560Z,6.45
2022-08-08T02:46:35.606Z,4.88
2022-08-08T02:47:40.890Z,5.40
2022-08-08T02:48:50.668Z,6.30
2022-08-08T02:49:51.973Z,6.82
2022-08-08T02:50:59.686Z,8.18
2022-08-08T02:52:32.942Z,5.15
2022-08-08T02:53:17.995Z,5.65
2022-08-08T02:54:03.779Z,5.93
2022-08-08T02:55:19.937Z,5.95
2022-08-08T02:56:25.190Z,6.50
2022-08-08T02:57:23.999Z,6.18
2022-08-08T02:58:37.550Z,5.90
2022-08-08T02:59:58.002Z,6.35
2022-08-08T03:01:20.296Z,5.88
2022-08-08T03:02:37.273Z,5.18
2022-08-08T03:05:03.805Z,5.82
2022-08-08T03:05:45.467Z,5.38
2022-08-08T03:06:56.814Z,5.10
2022-08-08T03:08:04.350Z,5.00
2022-08-08T03:09:16.694Z,5.78
2022-08-08T03:10:32.940Z,5.00
2022-08-08T03:12:02.566Z,5.80
2022-08-08T03:13:07.478Z,6.15
2022-08-08T03:16:00.165Z,5.63
2022-08-08T03:16:05.325Z,5.72
2022-08-08T03:16:46.109Z,5.50
2022-08-08T03:17:38.965Z,5.03
2022-08-08T03:18:30.758Z,5.30
2022-08-08T03:19:37.574Z,5.60
2022-08-08T03:20:11.448Z,5.00
2022-08-08T03:20:46.977Z,6.00
2022-08-08T03:21:26.941Z,5.18
2022-08-08T03:22:38.419Z,4.93
2022-08-08T03:23:06.569Z,5.40
2022-08-08T03:23:56.589Z,5.43
2022-08-08T03:24:31.246Z,5.63
2022-08-08T03:25:14.565Z,5.35
2022-08-08T03:25:50.129Z,5.68
2022-08-08T03:26:30.810Z,4.72
2022-08-08T03:27:09.413Z,5.40
2022-08-08T03:27:47.284Z,5.32
2022-08-08T03:28:32.776Z,5.57
2022-08-08T03:29:16.858Z,6.18
2022-08-08T03:29:58.281Z,5.53
2022-08-08T03:30:32.090Z,5.50
2022-08-08T03:31:24.995Z,5.75
2022-08-08T03:32:16.808Z,6.00
2022-08-08T03:33:53.932Z,5.03
2022-08-08T03:34:05.339Z,4.93
2022-08-08T03:34:40.030Z,5.57
2022-08-08T03:35:12.959Z,5.50
2022-08-08T03:35:50.419Z,5.47
2022-08-08T03:36:27.947Z,4.78
2022-08-08T03:37:10.721Z,6.47
2022-08-08T03:37:59.675Z,5.93
2022-08-08T03:38:54.931Z,5.50
2022-08-08T03:39:32.195Z,5.18
2022-08-08T03:40:29.929Z,5.80
2022-08-08T03:41:22.848Z,5.38
2022-08-08T03:42:27.865Z,5.47
2022-08-08T03:42:50.317Z,4.93
2022-08-08T03:43:25.135Z,5.68
2022-08-08T03:44:03.574Z,6.32
2022-08-08T03:44:38.455Z,5.10
2022-08-08T03:46:05.789Z,6.32
2022-08-08T03:46:09.681Z,6.18
2022-08-08T03:46:47.122Z,6.07
2022-08-08T03:47:22.054Z,6.93
2022-08-08T03:47:58.746Z,6.07
2022-08-08T03:49:09.819Z,6.80
2022-08-08T03:49:58.155Z,6.15
2022-08-08T03:50:19.684Z,6.10
2022-08-08T03:50:53.033Z,6.47
2022-08-08T03:51:35.396Z,6.22
2022-08-08T03:52:14.089Z,5.53
2022-08-08T03:52:46.218Z,6.28
2022-08-08T03:53:24.264Z,6.07
2022-08-08T03:54:15.733Z,6.95
2022-08-08T03:55:20.199Z,10.32
2022-08-08T03:56:04.738Z,6.43
2022-08-08T03:56:42.469Z,6.30
2022-08-08T03:58:33.346Z,6.22
2022-08-08T03:58:35.371Z,6.75
2022-08-08T03:59:09.584Z,6.57
2022-08-08T03:59:59.644Z,6.93
2022-08-08T04:00:56.439Z,6.70
2022-08-08T04:02:12.502Z,6.15
2022-08-08T04:02:47.630Z,6.47
2022-08-08T04:03:25.932Z,6.38
2022-08-08T04:04:13.562Z,6.55
2022-08-08T04:04:48.381Z,6.68
2022-08-08T04:05:28.094Z,7.88
2022-08-08T04:06:05.931Z,7.25
2022-08-08T04:06:38.562Z,8.05
2022-08-08T04:07:10.781Z,7.80
2022-08-08T04:07:49.437Z,8.23
2022-08-08T04:08:33.137Z,8.02
2022-08-08T04:09:11.287Z,8.00
2022-08-08T04:10:00.843Z,8.90
2022-08-08T04:10:38.689Z,8.32
2022-08-08T04:11:17.658Z,8.50
2022-08-08T04:12:00.557Z,8.00
2022-08-08T04:12:33.883Z,8.00
2022-08-08T04:13:18.240Z,7.90
2022-08-08T04:14:03.491Z,7.93
2022-08-08T04:14:45.253Z,7.30
2022-08-08T04:15:17.398Z,7.47
2022-08-08T04:15:54.705Z,6.85
2022-08-08T04:16:38.934Z,6.20
2022-08-08T04:17:22.943Z,6.28
2022-08-08T04:18:05.772Z,6.35
2022-08-08T04:18:44.912Z,6.32
2022-08-08T04:19:23.832Z,6.53
2022-08-08T04:19:58.309Z,6.90
2022-08-08T04:20:30.196Z,7.60
2022-08-08T04:21:02.169Z,6.40
2022-08-08T04:21:45.585Z,8.27
2022-08-08T04:22:17.849Z,7.35
2022-08-08T04:22:57.273Z,6.85
2022-08-08T04:24:00.424Z,6.32
2022-08-08T04:24:28.599Z,6.47
2022-08-08T04:25:03.170Z,5.82
2022-08-08T04:25:38.107Z,6.38
2022-08-08T04:26:12.152Z,6.47
2022-08-08T04:26:57.530Z,7.32
2022-08-08T04:28:02.692Z,6.45
2022-08-08T04:28:36.836Z,6.05
2022-08-08T04:29:15.059Z,6.40
2022-08-08T04:29:55.225Z,6.57
2022-08-08T04:30:36.598Z,6.97
2022-08-08T04:31:56.679Z,6.60
2022-08-08T04:32:10.428Z,6.15
2022-08-08T04:32:48.215Z,7.53
2022-08-08T04:33:22.509Z,7.07
2022-08-08T04:33:54.349Z,7.05
2022-08-08T04:34:31.703Z,6.65
2022-08-08T04:35:04.517Z,6.07
2022-08-08T04:35:39.637Z,6.75
2022-08-08T04:36:11.897Z,6.38
2022-08-08T04:36:43.800Z,7.35
2022-08-08T04:37:19.197Z,6.80
2022-08-08T04:37:51.254Z,7.10
2022-08-08T04:38:23.118Z,6.93
2022-08-08T04:39:47.794Z,6.90
2022-08-08T04:40:06.449Z,7.90
2022-08-08T04:40:51.756Z,6.70
2022-08-08T04:41:26.313Z,7.40
2022-08-08T04:42:11.313Z,6.55
2022-08-08T04:42:57.157Z,6.35
2022-08-08T04:43:31.821Z,7.32
2022-08-08T04:44:17.981Z,6.50
2022-08-08T04:44:52.280Z,6.10
2022-08-08T04:45:26.438Z,7.00
2022-08-08T04:45:59.088Z,6.22
2022-08-08T04:46:31.206Z,6.80
2022-08-08T04:47:04.456Z,6.53
2022-08-08T04:47:43.294Z,6.65
2022-08-08T04:48:21.896Z,6.50
2022-08-08T04:48:54.173Z,6.20
2022-08-08T04:49:28.575Z,7.15
2022-08-08T04:50:06.018Z,5.72
2022-08-08T04:50:38.886Z,6.97
2022-08-08T04:51:23.650Z,7.68
2022-08-08T04:52:05.438Z,6.03
2022-08-08T04:52:38.261Z,6.65
2022-08-08T04:53:52.273Z,6.38
2022-08-08T04:54:39.217Z,6.38
2022-08-08T04:54:56.225Z,6.40
2022-08-08T04:55:47.077Z,7.30
2022-08-08T04:56:21.226Z,6.28
2022-08-08T04:56:54.122Z,6.22
2022-08-08T04:57:26.066Z,7.10
2022-08-08T04:58:00.562Z,6.30
2022-08-08T04:58:33.406Z,9.45
2022-08-08T04:59:05.426Z,6.30
2022-08-08T04:59:42.275Z,6.57
2022-08-08T05:00:19.666Z,6.45
2022-08-08T05:00:52.248Z,7.60
2022-08-08T05:01:24.514Z,6.60
2022-08-08T05:02:22.457Z,5.32
2022-08-08T05:03:00.597Z,6.43
2022-08-08T05:04:11.202Z,6.80
2022-08-08T05:04:39.437Z,6.97
2022-08-08T05:05:20.415Z,7.68
2022-08-08T05:06:13.384Z,6.63
2022-08-08T05:06:48.140Z,6.40
2022-08-08T05:07:24.293Z,6.68
2022-08-08T05:07:57.689Z,6.03
2022-08-08T05:08:31.036Z,6.18
2022-08-08T05:09:06.082Z,6.63
2022-08-08T05:09:38.299Z,6.88
2022-08-08T05:10:12.861Z,7.03
2022-08-08T05:10:45.021Z,6.78
2022-08-08T05:11:23.099Z,6.32
2022-08-08T05:11:59.191Z,6.80
2022-08-08T05:12:31.349Z,6.68
2022-08-08T05:13:12.862Z,7.00
2022-08-08T05:13:54.971Z,6.13
2022-08-08T05:14:34.172Z,7.00
2022-08-08T05:15:06.551Z,6.70
2022-08-08T05:16:54.509Z,6.45
2022-08-08T05:16:55.642Z,6.45
2022-08-08T05:17:24.406Z,6.03
2022-08-08T05:17:57.204Z,7.03
2022-08-08T05:18:29.891Z,6.00
2022-08-08T05:19:01.734Z,6.53
2022-08-08T05:20:11.294Z,6.90
2022-08-08T05:20:30.064Z,6.32
2022-08-08T05:21:05.811Z,6.15
2022-08-08T05:21:43.804Z,7.32
2022-08-08T05:22:31.512Z,6.10
2022-08-08T05:23:04.139Z,6.88
2022-08-08T05:23:41.230Z,6.82
2022-08-08T05:24:18.805Z,7.22
2022-08-08T05:24:57.945Z,7.15
2022-08-08T05:25:41.507Z,7.80
2022-08-08T05:26:14.085Z,7.82
2022-08-08T05:26:46.354Z,6.40
2022-08-08T05:27:22.964Z,7.05
2022-08-08T05:27:55.123Z,5.68
2022-08-08T05:28:55.885Z,6.07
2022-08-08T05:29:21.038Z,6.45
2022-08-08T05:29:52.950Z,6.90
2022-08-08T05:30:28.549Z,6.80
2022-08-08T05:31:08.543Z,7.03
2022-08-08T05:32:04.356Z,6.88
2022-08-08T05:32:38.292Z,6.07
2022-08-08T05:33:11.689Z,6.32
2022-08-08T05:33:49.492Z,5.78
2022-08-08T05:34:34.816Z,6.47
2022-08-08T05:35:09.661Z,6.15
2022-08-08T05:35:44.444Z,6.57
2022-08-08T05:36:25.668Z,6.20
2022-08-08T05:37:00.453Z,6.28
2022-08-08T05:37:52.860Z,5.90
2022-08-08T05:38:30.788Z,6.70
2022-08-08T05:39:06.818Z,6.55
2022-08-08T05:39:43.934Z,6.30
2022-08-08T05:40:17.151Z,6.82
2022-08-08T05:40:57.611Z,5.22
2022-08-08T05:41:33.309Z,6.50
2022-08-08T05:42:37.044Z,6.57
2022-08-08T05:43:17.219Z,6.65
2022-08-08T05:44:08.500Z,5.60
2022-08-08T05:44:46.804Z,6.00
2022-08-08T05:45:25.395Z,6.55
2022-08-08T05:46:08.044Z,7.60
2022-08-08T05:46:41.499Z,6.63
2022-08-08T05:47:22.649Z,5.90
2022-08-08T05:48:00.530Z,6.45
2022-08-08T05:48:41.939Z,6.20
2022-08-08T05:49:16.457Z,5.80
2022-08-08T05:49:55.809Z,6.20
2022-08-08T05:50:29.614Z,5.80
2022-08-08T05:51:14.432Z,6.88
2022-08-08T05:51:49.730Z,7.20
2022-08-08T05:52:35.438Z,6.05
2022-08-08T05:53:23.184Z,5.70
2022-08-08T05:54:28.562Z,5.45
2022-08-08T05:55:02.074Z,5.50
2022-08-08T05:56:07.824Z,5.55
2022-08-08T05:56:31.849Z,5.60
2022-08-08T05:57:07.150Z,6.50
2022-08-08T05:58:04.169Z,6.40
2022-08-08T05:58:34.861Z,5.90
2022-08-08T06:00:00.822Z,6.47
2022-08-08T06:00:22.804Z,6.22
2022-08-08T06:00:58.412Z,6.68
2022-08-08T06:01:52.586Z,5.95
2022-08-08T06:02:48.692Z,5.18
2022-08-08T06:03:25.311Z,5.63
2022-08-08T06:04:08.424Z,5.75
2022-08-08T06:04:54.453Z,6.22
2022-08-08T06:05:35.485Z,6.03
2022-08-08T06:06:09.685Z,5.80
2022-08-08T06:06:42.798Z,5.53
2022-08-08T06:07:20.238Z,5.22
2022-08-08T06:08:02.021Z,5.65
2022-08-08T06:08:36.763Z,5.30
2022-08-08T06:09:59.106Z,5.60
2022-08-08T06:10:03.465Z,6.75
2022-08-08T06:10:41.116Z,4.57
2022-08-08T06:11:13.364Z,5.70
2022-08-08T06:11:49.075Z,4.60
2022-08-08T06:12:29.952Z,4.68
2022-08-08T06:13:04.426Z,5.30
2022-08-08T06:13:47.784Z,3.70
2022-08-08T06:14:22.888Z,3.85
2022-08-08T06:14:57.780Z,6.97
2022-08-08T06:15:50.028Z,5.20
2022-08-08T06:16:27.705Z,5.55
2022-08-08T06:17:04.662Z,4.97
2022-08-08T06:17:50.974Z,4.80
2022-08-08T06:18:33.265Z,4.50
2022-08-08T06:19:05.618Z,10.55
2022-08-08T06:19:41.342Z,6.47
2022-08-08T06:20:16.249Z,4.75
2022-08-08T06:20:49.597Z,6.70
2022-08-08T06:21:32.484Z,5.65
2022-08-08T06:22:32.085Z,5.28
2022-08-08T06:22:58.354Z,5.05
2022-08-08T06:23:53.186Z,6.60
2022-08-08T06:24:31.024Z,5.95
2022-08-08T06:25:04.643Z,5.75
2022-08-08T06:26:38.981Z,6.78
2022-08-08T06:26:45.403Z,5.38
2022-08-08T06:27:29.881Z,4.72
2022-08-08T06:28:14.273Z,5.05
2022-08-08T06:28:54.242Z,5.40
2022-08-08T06:30:00.365Z,5.10
2022-08-08T06:30:28.845Z,6.32
2022-08-08T06:31:03.665Z,6.07
2022-08-08T06:31:52.866Z,5.53
2022-08-08T06:32:32.126Z,6.57
2022-08-08T06:33:06.290Z,6.20
2022-08-08T06:34:26.503Z,5.60
2022-08-08T06:34:39.795Z,6.40
2022-08-08T06:36:07.522Z,6.38
2022-08-08T06:36:10.314Z,6.38
2022-08-08T06:36:53.372Z,6.00
2022-08-08T06:37:37.496Z,6.50
2022-08-08T06:38:14.869Z,5.72
2022-08-08T06:38:50.553Z,6.53
2022-08-08T06:39:24.572Z,6.88
2022-08-08T06:40:03.461Z,6.55
2022-08-08T06:40:37.039Z,6.55
2022-08-08T06:41:13.353Z,6.28
2022-08-08T06:41:51.029Z,6.13
2022-08-08T06:42:29.434Z,6.60
2022-08-08T06:43:09.641Z,6.18
2022-08-08T06:43:47.818Z,6.45
2022-08-08T06:44:30.316Z,5.30
2022-08-08T06:45:05.414Z,4.93
2022-08-08T06:45:39.589Z,4.93
2022-08-08T06:46:13.335Z,4.85
2022-08-08T06:46:49.297Z,4.90
2022-08-08T06:47:33.872Z,5.75
2022-08-08T06:48:15.580Z,6.20
2022-08-08T06:48:49.176Z,5.47
2022-08-08T06:49:56.480Z,5.47
2022-08-08T06:50:17.656Z,6.47
2022-08-08T06:51:07.625Z,5.55
2022-08-08T06:51:52.706Z,5.18
2022-08-08T06:52:31.066Z,7.75
2022-08-08T06:53:09.903Z,4.45
2022-08-08T06:53:50.745Z,4.78
2022-08-08T06:54:29.339Z,4.80
2022-08-08T06:55:01.703Z,5.32
2022-08-08T06:55:37.756Z,5.05
2022-08-08T06:56:16.709Z,5.30
2022-08-08T06:56:51.607Z,4.13
2022-08-08T06:57:24.989Z,6.70
2022-08-08T06:58:04.181Z,5.57
2022-08-08T06:58:40.034Z,5.55
2022-08-08T06:59:13.157Z,5.85
2022-08-08T07:00:10.818Z,4.57
2022-08-08T07:00:40.863Z,5.60
2022-08-08T07:02:17.355Z,4.93
2022-08-08T07:02:26.723Z,5.20
2022-08-08T07:03:04.851Z,4.97
2022-08-08T07:03:51.920Z,5.03
2022-08-08T07:04:51.951Z,5.70
2022-08-08T07:05:29.866Z,4.95
2022-08-08T07:06:17.311Z,6.10
2022-08-08T07:06:54.608Z,5.10
2022-08-08T07:07:37.168Z,5.82
2022-08-08T07:08:16.439Z,5.38
2022-08-08T07:08:52.921Z,6.03
2022-08-08T07:09:45.536Z,5.78
2022-08-08T07:10:32.701Z,4.50
2022-08-08T07:11:05.667Z,4.50
2022-08-08T07:11:50.783Z,5.25
2022-08-08T07:12:32.150Z,5.15
2022-08-08T07:13:06.124Z,5.30
2022-08-08T07:14:00.444Z,5.88
2022-08-08T07:14:42.170Z,4.90
2022-08-08T07:15:32.451Z,4.40
2022-08-08T07:16:15.881Z,5.63
2022-08-08T07:16:58.366Z,4.53
2022-08-08T07:17:40.275Z,5.20
2022-08-08T07:18:40.842Z,5.57
2022-08-08T07:19:23.176Z,4.65
2022-08-08T07:20:05.430Z,4.60
2022-08-08T07:20:46.028Z,6.30
2022-08-08T07:21:27.884Z,4.78
2022-08-08T07:22:05.632Z,5.63
2022-08-08T07:22:54.986Z,4.35
2022-08-08T07:24:01.526Z,5.05
2022-08-08T07:24:34.435Z,5.05
2022-08-08T07:25:07.443Z,4.47
2022-08-08T07:25:54.137Z,4.53
2022-08-08T07:26:35.243Z,4.82
2022-08-08T07:27:16.708Z,5.75
2022-08-08T07:28:02.871Z,6.80
2022-08-08T07:28:42.533Z,5.03
2022-08-08T07:29:54.661Z,4.70
2022-08-08T07:30:14.826Z,5.65
2022-08-08T07:30:48.801Z,4.68
2022-08-08T07:31:22.418Z,5.30
2022-08-08T07:31:58.824Z,4.82
2022-08-08T07:32:32.120Z,4.10
2022-08-08T07:33:05.689Z,4.68
2022-08-08T07:33:53.660Z,4.40
2022-08-08T07:34:32.762Z,4.35
2022-08-08T07:35:06.152Z,4.75
2022-08-08T07:35:39.014Z,6.57
2022-08-08T07:36:12.512Z,5.10
2022-08-08T07:36:50.933Z,4.63
2022-08-08T07:37:23.613Z,4.72
2022-08-08T07:38:05.093Z,4.82
2022-08-08T07:38:49.165Z,4.60
2022-08-08T07:39:29.325Z,4.90
2022-08-08T07:40:02.749Z,5.00
2022-08-08T07:40:35.879Z,5.45
2022-08-08T07:41:16.779Z,5.60
2022-08-08T07:42:04.917Z,5.30
2022-08-08T07:42:37.583Z,5.68
2022-08-08T07:43:13.678Z,4.63
2022-08-08T07:43:51.220Z,6.55
2022-08-08T07:44:40.783Z,4.50
2022-08-08T07:45:17.829Z,4.28
2022-08-08T07:46:05.153Z,5.68
2022-08-08T07:46:42.589Z,4.22
2022-08-08T07:47:14.441Z,4.47
2022-08-08T07:47:49.174Z,5.47
2022-08-08T07:48:24.590Z,4.90
2022-08-08T07:49:01.691Z,4.90
2022-08-08T07:49:36.497Z,4.35
2022-08-08T07:50:13.587Z,5.68
2022-08-08T07:50:48.171Z,4.05
2022-08-08T07:51:23.009Z,4.43
2022-08-08T07:51:56.514Z,4.22
2022-08-08T07:52:31.515Z,4.45
2022-08-08T07:53:52.217Z,4.40
2022-08-08T07:54:27.223Z,5.00
2022-08-08T07:55:04.474Z,5.53
2022-08-08T07:55:41.246Z,4.82
2022-08-08T07:56:17.066Z,5.10
2022-08-08T07:57:19.778Z,4.55
2022-08-08T07:58:01.470Z,4.68
2022-08-08T07:58:39.693Z,4.20
2022-08-08T07:59:16.365Z,4.20
2022-08-08T08:00:03.085Z,4.15
2022-08-08T08:00:41.143Z,5.63
2022-08-08T08:01:20.413Z,4.38
2022-08-08T08:02:36.489Z,4.03
2022-08-08T08:03:01.966Z,4.20
2022-08-08T08:03:43.487Z,5.40
2022-08-08T08:04:17.927Z,5.22
2022-08-08T08:04:56.602Z,5.40
2022-08-08T08:05:33.483Z,3.83
2022-08-08T08:06:07.024Z,3.60
2022-08-08T08:06:41.836Z,3.78
2022-08-08T08:07:16.276Z,5.15
2022-08-08T08:07:54.578Z,4.38
2022-08-08T08:08:32.201Z,4.70
2022-08-08T08:09:10.942Z,3.20
2022-08-08T08:09:44.070Z,4.30
2022-08-08T08:10:18.158Z,4.30
2022-08-08T08:11:04.339Z,6.38
2022-08-08T08:11:51.418Z,3.30
2022-08-08T08:12:35.495Z,4.10
2022-08-08T08:13:25.889Z,4.75
2022-08-08T08:14:19.323Z,4.05
2022-08-08T08:14:55.656Z,3.95
2022-08-08T08:15:32.096Z,4.65
2022-08-08T08:16:05.964Z,4.10
2022-08-08T08:16:41.574Z,4.57
2022-08-08T08:17:22.797Z,4.40
2022-08-08T08:17:59.085Z,9.10
2022-08-08T08:18:51.671Z,11.70
2022-08-08T08:19:45.833Z,17.33
2022-08-08T08:20:21.163Z,8.88
2022-08-08T08:21:04.701Z,8.27
2022-08-08T08:21:56.961Z,12.90
2022-08-08T08:22:33.810Z,5.80
2022-08-08T08:23:06.140Z,7.22
2022-08-08T08:23:40.636Z,10.02
2022-08-08T08:24:15.411Z,13.63
2022-08-08T08:24:47.450Z,14.80
2022-08-08T08:25:42.367Z,19.95
2022-08-08T08:26:13.865Z,16.55
2022-08-08T08:27:03.482Z,14.10
2022-08-08T08:27:35.699Z,6.57
2022-08-08T08:28:09.391Z,4.55
2022-08-08T08:28:42.407Z,5.20
2022-08-08T08:29:16.554Z,5.43
2022-08-08T08:29:53.193Z,4.80
2022-08-08T08:30:27.814Z,3.90
2022-08-08T08:31:04.684Z,4.32
2022-08-08T08:31:37.547Z,5.50
2022-08-08T08:32:32.115Z,4.68
2022-08-08T08:33:11.191Z,4.20
2022-08-08T08:33:43.774Z,4.38
2022-08-08T08:34:23.353Z,5.10
2022-08-08T08:34:55.199Z,4.20
2022-08-08T08:36:20.066Z,6.63
2022-08-08T08:36:21.963Z,4.90
2022-08-08T08:36:59.462Z,4.85
2022-08-08T08:37:31.426Z,5.63
2022-08-08T08:38:17.424Z,13.15
2022-08-08T08:38:51.148Z,4.47
2022-08-08T08:39:24.020Z,7.97
2022-08-08T08:40:01.804Z,11.25
2022-08-08T08:40:35.946Z,21.25
2022-08-08T08:41:16.843Z,17.15
2022-08-08T08:41:51.172Z,9.05
2022-08-08T08:42:32.041Z,9.68
2022-08-08T08:43:15.188Z,6.03
2022-08-08T08:43:51.018Z,3.80
2022-08-08T08:44:29.015Z,4.63
2022-08-08T08:45:20.828Z,4.10
2022-08-08T08:45:57.333Z,4.25
2022-08-08T08:46:31.638Z,4.22
2022-08-08T08:47:04.704Z,3.53
2022-08-08T08:47:44.692Z,4.07
2022-08-08T08:48:20.642Z,4.20
2022-08-08T08:48:53.439Z,4.07
2022-08-08T08:49:30.658Z,4.10
2022-08-08T08:50:06.774Z,3.88
2022-08-08T08:51:03.275Z,3.30
2022-08-08T08:51:51.711Z,3.38
2022-08-08T08:52:25.069Z,3.30
2022-08-08T08:53:04.885Z,4.72
2022-08-08T08:54:01.009Z,3.10
2022-08-08T08:54:34.845Z,5.63
2022-08-08T08:55:12.327Z,4.10
2022-08-08T08:55:46.697Z,4.20
2022-08-08T08:56:24.103Z,4.13
2022-08-08T08:56:58.379Z,4.32
2022-08-08T08:57:34.529Z,5.63
2022-08-08T08:58:08.638Z,3.72
2022-08-08T08:58:49.871Z,5.97
2022-08-08T08:59:59.034Z,4.30
2022-08-08T09:00:19.162Z,3.95
2022-08-08T09:01:09.302Z,6.03
2022-08-08T09:01:45.610Z,4.53
2022-08-08T09:02:21.405Z,4.10
2022-08-08T09:02:59.932Z,3.50
2022-08-08T09:03:45.674Z,3.25
2022-08-08T09:04:31.323Z,3.17
2022-08-08T09:05:49.263Z,3.30
2022-08-08T09:06:26.909Z,3.55
2022-08-08T09:07:12.154Z,4.03
2022-08-08T09:07:52.352Z,4.18
2022-08-08T09:08:42.728Z,3.20
2022-08-08T09:09:35.600Z,3.78
2022-08-08T09:10:17.305Z,3.38
2022-08-08T09:10:51.067Z,3.80
2022-08-08T09:11:24.250Z,3.08
2022-08-08T09:12:06.353Z,3.50
2022-08-08T09:12:40.618Z,2.83
2022-08-08T09:13:28.131Z,3.35
2022-08-08T09:14:01.123Z,3.70
2022-08-08T09:14:34.448Z,3.97
2022-08-08T09:15:08.339Z,2.90
2022-08-08T09:15:43.287Z,3.50
2022-08-08T09:16:16.162Z,3.33
2022-08-08T09:16:52.246Z,3.80
2022-08-08T09:17:40.904Z,3.35
2022-08-08T09:18:18.107Z,3.55
2022-08-08T09:18:50.789Z,3.20
2022-08-08T09:21:57.975Z,3.22
2022-08-08T09:22:00.535Z,3.20
2022-08-08T09:22:01.476Z,3.47
2022-08-08T09:22:06.103Z,3.00
2022-08-08T09:22:39.549Z,3.10
2022-08-08T09:23:17.641Z,3.13
2022-08-08T09:23:50.153Z,3.72
2022-08-08T09:24:24.353Z,2.85
2022-08-08T09:24:58.570Z,2.85
2022-08-08T09:25:36.182Z,3.38
2022-08-08T09:26:39.335Z,3.30
2022-08-08T09:27:20.249Z,3.70
2022-08-08T09:28:06.189Z,2.80
2022-08-08T09:28:40.189Z,3.78
2022-08-08T09:29:22.669Z,4.05
2022-08-08T09:30:04.019Z,3.00
2022-08-08T09:30:43.774Z,5.60
2022-08-08T09:31:42.716Z,3.22
2022-08-08T09:32:37.102Z,4.38
2022-08-08T09:33:54.729Z,2.80
2022-08-08T09:34:30.736Z,3.53
2022-08-08T09:35:06.494Z,2.72
2022-08-08T09:35:49.889Z,3.28
2022-08-08T09:36:24.387Z,3.50
2022-08-08T09:37:57.477Z,3.67
2022-08-08T09:38:02.362Z,2.95
2022-08-08T09:38:53.324Z,3.70
2022-08-08T09:39:30.505Z,3.35
2022-08-08T09:40:11.056Z,3.42
2022-08-08T09:40:53.938Z,3.55
2022-08-08T09:42:14.453Z,3.55
2022-08-08T09:42:33.909Z,3.67
2022-08-08T09:43:41.150Z,3.15
2022-08-08T09:44:34.029Z,3.05
2022-08-08T09:45:15.654Z,3.47
2022-08-08T09:46:02.959Z,3.85
2022-08-08T09:46:45.203Z,3.92
2022-08-08T09:47:26.539Z,4.10
2022-08-08T09:48:21.868Z,3.95
2022-08-08T09:49:18.020Z,3.13
2022-08-08T09:49:58.686Z,3.95
2022-08-08T09:50:37.536Z,3.50
2022-08-08T09:51:20.177Z,4.30
2022-08-08T09:52:07.466Z,3.30
2022-08-08T09:52:59.206Z,3.20
2022-08-08T09:54:00.002Z,3.40
2022-08-08T09:54:36.953Z,3.10
2022-08-08T09:55:17.320Z,3.40
2022-08-08T09:56:07.037Z,2.95
2022-08-08T09:56:46.741Z,3.13
2022-08-08T09:57:32.304Z,3.70
2022-08-08T09:58:20.215Z,3.70
2022-08-08T09:59:11.166Z,2.92
2022-08-08T10:00:35.925Z,3.95
2022-08-08T10:00:57.228Z,3.60
2022-08-08T10:01:59.121Z,2.78
2022-08-08T10:02:34.805Z,3.40
2022-08-08T10:03:13.299Z,3.75